sensor_id;sensor_type;location;lat;lon;timestamp;temperature;humidity
5382;DHT22;2714;49.852;6.564;2023-02-01T00:02:15;5.60;99.90
5382;DHT22;2714;49.852;6.564;2023-02-01T00:06:16;5.60;99.90
5382;DHT22;2714;49.852;6.564;2023-02-01T00:10:16;5.70;99.90
5382;DHT22;2714;49.852;6.564;2023-02-01T00:14:17;5.60;99.90
5382;DHT22;2714;49.852;6.564;2023-02-01T00:18:18;5.70;99.90
5382;DHT22;2714;49.852;6.564;2023-02-01T00:22:18;5.70;99.90
5382;DHT22;2714;49.852;6.564;2023-02-01T00:26:40;5.60;99.90
5382;DHT22;2714;49.852;6.564;2023-02-01T00:30:41;5.60;99.90
5382;DHT22;2714;49.852;6.564;2023-02-01T00:34:41;5.60;99.90
5382;DHT22;2714;49.852;6.564;2023-02-01T00:38:42;5.60;99.90
5382;DHT22;2714;49.852;6.564;2023-02-01T00:42:43;5.70;99.90
5382;DHT22;2714;49.852;6.564;2023-02-01T00:46:43;5.70;99.90
5382;DHT22;2714;49.852;6.564;2023-02-01T00:50:44;5.80;99.90
5382;DHT22;2714;49.852;6.564;2023-02-01T00:54:44;5.80;99.90
5382;DHT22;2714;49.852;6.564;2023-02-01T00:58:45;5.80;99.90
5382;DHT22;2714;49.852;6.564;2023-02-01T01:02:46;5.80;99.90
5382;DHT22;2714;49.852;6.564;2023-02-01T01:06:46;5.80;99.90
5382;DHT22;2714;49.852;6.564;2023-02-01T01:10:47;5.90;99.90
5382;DHT22;2714;49.852;6.564;2023-02-01T01:14:47;5.90;99.90
5382;DHT22;2714;49.852;6.564;2023-02-01T01:18:48;5.90;99.90
5382;DHT22;2714;49.852;6.564;2023-02-01T01:22:49;5.90;99.90
5382;DHT22;2714;49.852;6.564;2023-02-01T01:26:50;5.90;99.90
5382;DHT22;2714;49.852;6.564;2023-02-01T01:30:50;5.90;99.90
5382;DHT22;2714;49.852;6.564;2023-02-01T01:34:51;5.90;99.90
5382;DHT22;2714;49.852;6.564;2023-02-01T01:38:52;5.80;99.90
5382;DHT22;2714;49.852;6.564;2023-02-01T01:42:52;5.80;99.90
5382;DHT22;2714;49.852;6.564;2023-02-01T01:46:54;5.80;99.90
5382;DHT22;2714;49.852;6.564;2023-02-01T01:51:06;5.90;99.90
5382;DHT22;2714;49.852;6.564;2023-02-01T01:55:09;5.90;99.90
5382;DHT22;2714;49.852;6.564;2023-02-01T01:59:10;6.00;99.90
5382;DHT22;2714;49.852;6.564;2023-02-01T02:03:21;6.00;99.90
5382;DHT22;2714;49.852;6.564;2023-02-01T02:07:28;6.00;99.90
5382;DHT22;2714;49.852;6.564;2023-02-01T02:11:30;6.00;99.90
5382;DHT22;2714;49.852;6.564;2023-02-01T02:15:31;6.00;99.90
5382;DHT22;2714;49.852;6.564;2023-02-01T02:24:13;6.00;99.90
5382;DHT22;2714;49.852;6.564;2023-02-01T02:41:19;6.10;99.90
5382;DHT22;2714;49.852;6.564;2023-02-01T02:50:27;6.10;99.90
5382;DHT22;2714;49.852;6.564;2023-02-01T02:54:49;6.00;99.90
5382;DHT22;2714;49.852;6.564;2023-02-01T02:58:52;6.10;99.90
5382;DHT22;2714;49.852;6.564;2023-02-01T03:03:13;6.10;99.90
5382;DHT22;2714;49.852;6.564;2023-02-01T03:07:55;6.00;99.90
5382;DHT22;2714;49.852;6.564;2023-02-01T03:12:02;6.00;99.90
5382;DHT22;2714;49.852;6.564;2023-02-01T03:16:27;5.90;99.90
5382;DHT22;2714;49.852;6.564;2023-02-01T03:20:29;6.00;99.90
5382;DHT22;2714;49.852;6.564;2023-02-01T03:28:43;6.10;99.90
5382;DHT22;2714;49.852;6.564;2023-02-01T03:32:46;6.10;99.90
5382;DHT22;2714;49.852;6.564;2023-02-01T03:37:03;6.10;99.90
5382;DHT22;2714;49.852;6.564;2023-02-01T03:41:15;6.10;99.90
5382;DHT22;2714;49.852;6.564;2023-02-01T03:45:26;6.00;99.90
5382;DHT22;2714;49.852;6.564;2023-02-01T03:49:40;6.00;99.90
5382;DHT22;2714;49.852;6.564;2023-02-01T03:53:43;6.00;99.90
5382;DHT22;2714;49.852;6.564;2023-02-01T03:57:51;6.00;99.90
5382;DHT22;2714;49.852;6.564;2023-02-01T04:01:53;5.90;99.90
5382;DHT22;2714;49.852;6.564;2023-02-01T04:05:54;5.90;99.90
5382;DHT22;2714;49.852;6.564;2023-02-01T04:09:54;5.90;99.90
5382;DHT22;2714;49.852;6.564;2023-02-01T04:13:55;5.90;99.90
5382;DHT22;2714;49.852;6.564;2023-02-01T04:17:55;5.90;99.90
5382;DHT22;2714;49.852;6.564;2023-02-01T04:21:56;5.80;99.90
5382;DHT22;2714;49.852;6.564;2023-02-01T04:26:04;5.90;99.90
5382;DHT22;2714;49.852;6.564;2023-02-01T04:30:05;5.90;99.90
5382;DHT22;2714;49.852;6.564;2023-02-01T04:34:09;5.80;99.90
5382;DHT22;2714;49.852;6.564;2023-02-01T04:38:10;5.80;99.90
5382;DHT22;2714;49.852;6.564;2023-02-01T04:42:11;5.90;99.90
5382;DHT22;2714;49.852;6.564;2023-02-01T04:46:12;5.90;99.90
5382;DHT22;2714;49.852;6.564;2023-02-01T04:50:13;6.00;99.90
5382;DHT22;2714;49.852;6.564;2023-02-01T04:54:13;6.00;99.90
5382;DHT22;2714;49.852;6.564;2023-02-01T04:58:14;6.00;99.90
5382;DHT22;2714;49.852;6.564;2023-02-01T05:02:15;6.00;99.90
5382;DHT22;2714;49.852;6.564;2023-02-01T05:06:15;5.90;99.90
5382;DHT22;2714;49.852;6.564;2023-02-01T05:10:16;5.90;99.90
5382;DHT22;2714;49.852;6.564;2023-02-01T05:14:16;5.90;99.90
5382;DHT22;2714;49.852;6.564;2023-02-01T05:18:17;6.00;99.90
5382;DHT22;2714;49.852;6.564;2023-02-01T05:22:17;6.00;99.90
5382;DHT22;2714;49.852;6.564;2023-02-01T05:26:18;6.10;99.90
5382;DHT22;2714;49.852;6.564;2023-02-01T05:30:19;6.00;99.90
5382;DHT22;2714;49.852;6.564;2023-02-01T05:34:19;6.00;99.90
5382;DHT22;2714;49.852;6.564;2023-02-01T05:38:20;6.00;99.90
5382;DHT22;2714;49.852;6.564;2023-02-01T05:42:20;5.90;99.90
5382;DHT22;2714;49.852;6.564;2023-02-01T05:46:21;6.00;99.90
5382;DHT22;2714;49.852;6.564;2023-02-01T05:50:22;6.00;99.90
5382;DHT22;2714;49.852;6.564;2023-02-01T05:54:22;5.90;99.90
5382;DHT22;2714;49.852;6.564;2023-02-01T05:58:23;5.90;99.90
5382;DHT22;2714;49.852;6.564;2023-02-01T06:02:23;5.80;99.90
5382;DHT22;2714;49.852;6.564;2023-02-01T06:06:24;5.90;99.90
5382;DHT22;2714;49.852;6.564;2023-02-01T06:10:25;5.90;99.90
5382;DHT22;2714;49.852;6.564;2023-02-01T06:14:25;5.80;99.90
5382;DHT22;2714;49.852;6.564;2023-02-01T06:18:26;5.90;99.90
5382;DHT22;2714;49.852;6.564;2023-02-01T06:22:27;5.80;99.90
5382;DHT22;2714;49.852;6.564;2023-02-01T06:26:27;5.70;99.90
5382;DHT22;2714;49.852;6.564;2023-02-01T06:30:28;5.70;99.90
5382;DHT22;2714;49.852;6.564;2023-02-01T06:34:30;5.50;99.90
5382;DHT22;2714;49.852;6.564;2023-02-01T06:38:31;5.50;99.90
5382;DHT22;2714;49.852;6.564;2023-02-01T06:42:34;5.40;99.90
5382;DHT22;2714;49.852;6.564;2023-02-01T06:46:35;5.40;99.90
5382;DHT22;2714;49.852;6.564;2023-02-01T06:50:35;5.30;99.90
5382;DHT22;2714;49.852;6.564;2023-02-01T06:54:36;5.20;99.90
5382;DHT22;2714;49.852;6.564;2023-02-01T06:58:37;5.10;99.90
5382;DHT22;2714;49.852;6.564;2023-02-01T07:02:39;5.00;99.90
5382;DHT22;2714;49.852;6.564;2023-02-01T07:06:40;5.00;99.90
5382;DHT22;2714;49.852;6.564;2023-02-01T07:10:40;5.00;99.90
5382;DHT22;2714;49.852;6.564;2023-02-01T07:14:41;5.00;99.90
5382;DHT22;2714;49.852;6.564;2023-02-01T07:18:42;4.90;99.90
5382;DHT22;2714;49.852;6.564;2023-02-01T07:22:42;4.90;99.90
5382;DHT22;2714;49.852;6.564;2023-02-01T07:26:43;5.00;99.90
5382;DHT22;2714;49.852;6.564;2023-02-01T07:30:44;4.90;99.90
5382;DHT22;2714;49.852;6.564;2023-02-01T07:34:50;4.90;99.90
5382;DHT22;2714;49.852;6.564;2023-02-01T07:38:51;4.90;99.90
5382;DHT22;2714;49.852;6.564;2023-02-01T07:42:52;4.90;99.90
5382;DHT22;2714;49.852;6.564;2023-02-01T07:46:52;4.90;99.90
5382;DHT22;2714;49.852;6.564;2023-02-01T07:50:58;5.00;99.90
5382;DHT22;2714;49.852;6.564;2023-02-01T07:54:58;5.10;99.90
5382;DHT22;2714;49.852;6.564;2023-02-01T07:58:59;5.20;99.90
5382;DHT22;2714;49.852;6.564;2023-02-01T08:03:00;5.20;99.90
5382;DHT22;2714;49.852;6.564;2023-02-01T08:07:01;5.20;99.90
5382;DHT22;2714;49.852;6.564;2023-02-01T08:11:03;5.20;99.90
5382;DHT22;2714;49.852;6.564;2023-02-01T08:15:04;5.20;99.90
5382;DHT22;2714;49.852;6.564;2023-02-01T08:19:05;5.30;99.90
5382;DHT22;2714;49.852;6.564;2023-02-01T08:23:08;5.40;99.90
5382;DHT22;2714;49.852;6.564;2023-02-01T08:27:09;5.50;99.90
5382;DHT22;2714;49.852;6.564;2023-02-01T08:31:12;5.40;99.90
5382;DHT22;2714;49.852;6.564;2023-02-01T08:35:15;5.40;99.90
5382;DHT22;2714;49.852;6.564;2023-02-01T08:39:15;5.30;99.90
5382;DHT22;2714;49.852;6.564;2023-02-01T08:43:16;5.30;99.90
5382;DHT22;2714;49.852;6.564;2023-02-01T08:47:16;5.40;99.90
5382;DHT22;2714;49.852;6.564;2023-02-01T08:51:19;5.50;99.90
5382;DHT22;2714;49.852;6.564;2023-02-01T08:55:20;5.60;99.90
5382;DHT22;2714;49.852;6.564;2023-02-01T08:59:21;6.00;99.90
5382;DHT22;2714;49.852;6.564;2023-02-01T09:03:21;5.90;99.90
5382;DHT22;2714;49.852;6.564;2023-02-01T09:07:22;5.80;99.90
5382;DHT22;2714;49.852;6.564;2023-02-01T09:11:22;5.90;99.90
5382;DHT22;2714;49.852;6.564;2023-02-01T09:15:23;5.90;99.90
5382;DHT22;2714;49.852;6.564;2023-02-01T09:19:23;5.80;99.90
5382;DHT22;2714;49.852;6.564;2023-02-01T09:23:24;5.70;99.90
5382;DHT22;2714;49.852;6.564;2023-02-01T09:27:24;5.60;99.90
5382;DHT22;2714;49.852;6.564;2023-02-01T09:31:25;5.50;99.90
5382;DHT22;2714;49.852;6.564;2023-02-01T09:35:26;5.50;99.90
5382;DHT22;2714;49.852;6.564;2023-02-01T09:39:26;5.50;99.90
5382;DHT22;2714;49.852;6.564;2023-02-01T09:43:39;5.50;99.90
5382;DHT22;2714;49.852;6.564;2023-02-01T09:47:47;5.50;99.90
5382;DHT22;2714;49.852;6.564;2023-02-01T09:51:51;5.50;99.90
5382;DHT22;2714;49.852;6.564;2023-02-01T09:56:04;5.60;99.90
5382;DHT22;2714;49.852;6.564;2023-02-01T10:00:16;5.70;99.90
5382;DHT22;2714;49.852;6.564;2023-02-01T10:04:18;5.70;99.90
5382;DHT22;2714;49.852;6.564;2023-02-01T10:18:09;5.90;99.90
5382;DHT22;2714;49.852;6.564;2023-02-01T10:22:39;5.90;99.90
5382;DHT22;2714;49.852;6.564;2023-02-01T10:26:45;5.90;99.90
5382;DHT22;2714;49.852;6.564;2023-02-01T10:30:48;6.00;99.90
5382;DHT22;2714;49.852;6.564;2023-02-01T10:34:52;6.00;99.90
5382;DHT22;2714;49.852;6.564;2023-02-01T10:39:00;6.00;99.90
5382;DHT22;2714;49.852;6.564;2023-02-01T10:43:01;6.00;99.90
5382;DHT22;2714;49.852;6.564;2023-02-01T10:47:03;6.00;99.90
5382;DHT22;2714;49.852;6.564;2023-02-01T10:51:27;6.00;99.90
5382;DHT22;2714;49.852;6.564;2023-02-01T10:59:38;6.40;99.90
5382;DHT22;2714;49.852;6.564;2023-02-01T11:03:44;6.50;99.90
5382;DHT22;2714;49.852;6.564;2023-02-01T11:07:50;6.30;99.90
5382;DHT22;2714;49.852;6.564;2023-02-01T11:11:55;6.30;99.90
5382;DHT22;2714;49.852;6.564;2023-02-01T11:15:59;6.30;99.90
5382;DHT22;2714;49.852;6.564;2023-02-01T11:20:06;6.30;99.90
5382;DHT22;2714;49.852;6.564;2023-02-01T11:24:29;6.20;99.90
5382;DHT22;2714;49.852;6.564;2023-02-01T11:28:32;6.30;99.90
5382;DHT22;2714;49.852;6.564;2023-02-01T11:32:33;6.30;99.90
5382;DHT22;2714;49.852;6.564;2023-02-01T11:36:35;6.30;99.90
5382;DHT22;2714;49.852;6.564;2023-02-01T11:40:38;6.20;99.90
5382;DHT22;2714;49.852;6.564;2023-02-01T11:44:43;6.20;99.90
5382;DHT22;2714;49.852;6.564;2023-02-01T11:48:44;6.30;99.90
5382;DHT22;2714;49.852;6.564;2023-02-01T12:05:49;6.60;99.90
5382;DHT22;2714;49.852;6.564;2023-02-01T12:10:12;6.70;99.90
5382;DHT22;2714;49.852;6.564;2023-02-01T12:36:43;7.40;99.90
5382;DHT22;2714;49.852;6.564;2023-02-01T12:49:48;7.30;99.90
5382;DHT22;2714;49.852;6.564;2023-02-01T12:54:04;7.40;99.90
5382;DHT22;2714;49.852;6.564;2023-02-01T12:58:10;7.70;99.90
5382;DHT22;2714;49.852;6.564;2023-02-01T13:02:42;7.80;99.90
5382;DHT22;2714;49.852;6.564;2023-02-01T13:06:46;7.80;99.90
5382;DHT22;2714;49.852;6.564;2023-02-01T13:10:59;7.90;99.90
5382;DHT22;2714;49.852;6.564;2023-02-01T13:15:09;8.00;99.90
5382;DHT22;2714;49.852;6.564;2023-02-01T13:23:40;7.60;99.90
5382;DHT22;2714;49.852;6.564;2023-02-01T13:27:42;7.50;99.90
5382;DHT22;2714;49.852;6.564;2023-02-01T13:32:10;7.50;99.90
5382;DHT22;2714;49.852;6.564;2023-02-01T13:36:53;7.50;99.90
5382;DHT22;2714;49.852;6.564;2023-02-01T13:41:27;7.60;99.90
5382;DHT22;2714;49.852;6.564;2023-02-01T13:45:32;7.60;99.90
5382;DHT22;2714;49.852;6.564;2023-02-01T13:49:38;7.70;99.90
5382;DHT22;2714;49.852;6.564;2023-02-01T13:53:45;7.70;99.90
5382;DHT22;2714;49.852;6.564;2023-02-01T13:57:49;7.80;99.90
5382;DHT22;2714;49.852;6.564;2023-02-01T14:01:51;7.90;99.90
5382;DHT22;2714;49.852;6.564;2023-02-01T14:09:51;7.70;99.90
5382;DHT22;2714;49.852;6.564;2023-02-01T14:13:53;7.70;99.90
5382;DHT22;2714;49.852;6.564;2023-02-01T14:17:54;7.80;99.90
5382;DHT22;2714;49.852;6.564;2023-02-01T14:26:26;8.20;99.90
5382;DHT22;2714;49.852;6.564;2023-02-01T14:30:27;8.30;99.90
5382;DHT22;2714;49.852;6.564;2023-02-01T14:38:49;8.20;99.90
5382;DHT22;2714;49.852;6.564;2023-02-01T14:42:52;8.00;99.90
5382;DHT22;2714;49.852;6.564;2023-02-01T14:51:03;7.80;99.90
5382;DHT22;2714;49.852;6.564;2023-02-01T14:55:13;8.10;99.90
5382;DHT22;2714;49.852;6.564;2023-02-01T14:59:16;7.90;99.90
5382;DHT22;2714;49.852;6.564;2023-02-01T15:03:45;7.70;99.90
5382;DHT22;2714;49.852;6.564;2023-02-01T15:07:47;7.50;99.90
5382;DHT22;2714;49.852;6.564;2023-02-01T15:16:14;7.20;99.90
5382;DHT22;2714;49.852;6.564;2023-02-01T15:20:18;7.30;99.90
5382;DHT22;2714;49.852;6.564;2023-02-01T15:28:24;7.30;99.90
5382;DHT22;2714;49.852;6.564;2023-02-01T15:32:29;7.40;99.90
5382;DHT22;2714;49.852;6.564;2023-02-01T15:36:33;7.60;99.90
5382;DHT22;2714;49.852;6.564;2023-02-01T15:40:35;7.60;99.90
5382;DHT22;2714;49.852;6.564;2023-02-01T15:44:41;7.70;99.90
5382;DHT22;2714;49.852;6.564;2023-02-01T15:48:51;7.60;99.90
5382;DHT22;2714;49.852;6.564;2023-02-01T15:52:53;7.40;99.90
5382;DHT22;2714;49.852;6.564;2023-02-01T15:56:56;7.30;99.90
5382;DHT22;2714;49.852;6.564;2023-02-01T16:01:01;7.20;99.90
5382;DHT22;2714;49.852;6.564;2023-02-01T16:05:21;7.30;99.90
5382;DHT22;2714;49.852;6.564;2023-02-01T16:09:36;7.20;99.90
5382;DHT22;2714;49.852;6.564;2023-02-01T16:13:36;7.20;99.90
5382;DHT22;2714;49.852;6.564;2023-02-01T16:17:37;7.10;99.90
5382;DHT22;2714;49.852;6.564;2023-02-01T16:21:38;7.10;99.90
5382;DHT22;2714;49.852;6.564;2023-02-01T16:25:39;7.00;99.90
5382;DHT22;2714;49.852;6.564;2023-02-01T16:29:39;7.00;99.90
5382;DHT22;2714;49.852;6.564;2023-02-01T16:33:40;6.90;99.90
5382;DHT22;2714;49.852;6.564;2023-02-01T16:37:40;6.90;99.90
5382;DHT22;2714;49.852;6.564;2023-02-01T16:41:41;6.90;99.90
5382;DHT22;2714;49.852;6.564;2023-02-01T16:45:42;6.90;99.90
5382;DHT22;2714;49.852;6.564;2023-02-01T16:49:49;6.80;99.90
5382;DHT22;2714;49.852;6.564;2023-02-01T16:53:50;6.80;99.90
5382;DHT22;2714;49.852;6.564;2023-02-01T16:57:51;6.70;99.90
5382;DHT22;2714;49.852;6.564;2023-02-01T17:01:51;6.70;99.90
5382;DHT22;2714;49.852;6.564;2023-02-01T17:05:54;6.70;99.90
5382;DHT22;2714;49.852;6.564;2023-02-01T17:09:55;6.60;99.90
